createdAt,value
2023-03-02T00:02:22.128Z,-6.14
2023-03-02T00:04:55.960Z,-5.95
2023-03-02T00:07:32.853Z,-6.14
2023-03-02T00:10:02.832Z,-5.86
2023-03-02T00:12:35.156Z,-6.00
2023-03-02T00:15:04.952Z,-5.93
2023-03-02T00:17:34.355Z,-6.10
2023-03-02T00:20:11.315Z,-6.12
2023-03-02T00:22:43.706Z,-6.04
2023-03-02T00:25:15.256Z,-6.08
2023-03-02T00:27:45.771Z,-6.09
2023-03-02T00:30:16.969Z,-6.19
2023-03-02T00:32:46.639Z,-6.22
2023-03-02T00:35:16.484Z,-6.21
2023-03-02T00:37:47.137Z,-6.23
2023-03-02T00:40:17.568Z,-6.03
2023-03-02T00:42:47.030Z,-5.97
2023-03-02T00:45:16.935Z,-5.94
2023-03-02T00:47:45.948Z,-5.98
2023-03-02T00:50:15.499Z,-5.98
2023-03-02T00:52:45.254Z,-6.06
2023-03-02T00:55:14.737Z,-6.06
2023-03-02T00:57:44.925Z,-5.97
2023-03-02T01:00:14.542Z,-5.39
2023-03-02T01:02:44.860Z,-5.29
2023-03-02T01:05:16.199Z,-5.37
2023-03-02T01:07:45.586Z,-5.72
2023-03-02T01:10:16.912Z,-5.78
2023-03-02T01:12:46.994Z,-5.80
2023-03-02T01:15:17.093Z,-6.11
2023-03-02T01:17:47.391Z,-6.38
2023-03-02T01:20:18.808Z,-6.10
2023-03-02T01:22:48.131Z,-6.11
2023-03-02T01:25:17.832Z,-5.96
2023-03-02T01:27:47.654Z,-5.81
2023-03-02T01:30:17.651Z,-5.77
2023-03-02T01:32:47.120Z,-5.78
2023-03-02T01:35:16.409Z,-5.66
2023-03-02T01:37:48.518Z,-5.57
2023-03-02T01:40:18.299Z,-5.49
2023-03-02T01:42:57.987Z,-5.47
2023-03-02T01:45:52.947Z,-5.35
2023-03-02T01:48:46.664Z,-5.43
2023-03-02T01:51:17.889Z,-5.43
2023-03-02T01:53:49.746Z,-5.35
2023-03-02T01:56:22.961Z,-5.36
2023-03-02T01:58:57.551Z,-5.32
2023-03-02T02:01:28.379Z,-5.50
2023-03-02T02:03:58.063Z,-5.19
2023-03-02T02:06:49.533Z,-5.14
2023-03-02T02:09:22.259Z,-5.20
2023-03-02T02:11:51.877Z,-5.08
2023-03-02T02:14:22.469Z,-5.09
2023-03-02T02:16:52.591Z,-5.14
2023-03-02T02:19:45.340Z,-5.21
2023-03-02T02:22:23.546Z,-5.12
2023-03-02T02:24:59.745Z,-5.07
2023-03-02T02:27:30.678Z,-5.48
2023-03-02T02:30:03.935Z,-5.45
2023-03-02T02:32:39.127Z,-5.60
2023-03-02T02:35:20.883Z,-5.61
2023-03-02T02:37:58.624Z,-5.73
2023-03-02T02:40:57.607Z,-5.59
2023-03-02T02:43:32.158Z,-5.50
2023-03-02T02:46:04.470Z,-5.36
2023-03-02T02:48:35.079Z,-5.33
2023-03-02T02:51:05.101Z,-5.25
2023-03-02T02:53:59.655Z,-5.22
2023-03-02T02:56:33.434Z,-5.21
2023-03-02T02:59:16.182Z,-5.21
2023-03-02T03:01:47.386Z,-5.13
2023-03-02T03:04:24.647Z,-5.26
2023-03-02T03:07:02.406Z,-5.32
2023-03-02T03:09:33.050Z,-5.32
2023-03-02T03:12:17.811Z,-5.30
2023-03-02T03:14:47.884Z,-5.36
2023-03-02T03:17:18.606Z,-5.31
2023-03-02T03:19:48.660Z,-5.28
2023-03-02T03:22:19.027Z,-5.22
2023-03-02T03:24:49.497Z,-5.27
2023-03-02T03:27:20.350Z,-5.27
2023-03-02T03:29:49.867Z,-5.31
2023-03-02T03:32:21.563Z,-5.25
2023-03-02T03:34:50.985Z,-5.22
2023-03-02T03:37:21.876Z,-5.27
2023-03-02T03:39:51.919Z,-5.19
2023-03-02T03:42:22.154Z,-5.24
2023-03-02T03:44:52.122Z,-5.25
2023-03-02T03:47:25.162Z,-5.27
2023-03-02T03:49:55.953Z,-5.23
2023-03-02T03:52:31.455Z,-5.27
2023-03-02T03:55:02.539Z,-5.32
2023-03-02T03:57:33.921Z,-5.29
2023-03-02T04:00:06.913Z,-5.30
2023-03-02T04:02:43.734Z,-5.25
2023-03-02T04:05:14.476Z,-5.27
2023-03-02T04:07:43.985Z,-5.24
2023-03-02T04:10:14.089Z,-5.29
2023-03-02T04:12:44.679Z,-5.30
2023-03-02T04:15:17.287Z,-5.29
2023-03-02T04:17:47.924Z,-5.32
2023-03-02T04:20:20.223Z,-5.24
2023-03-02T04:22:53.107Z,-5.31
2023-03-02T04:25:25.552Z,-5.29
2023-03-02T04:27:55.862Z,-5.27
2023-03-02T04:30:27.785Z,-5.33
2023-03-02T04:33:00.908Z,-5.33
2023-03-02T04:35:33.643Z,-5.23
2023-03-02T04:38:05.202Z,-5.29
2023-03-02T04:40:35.863Z,-5.24
2023-03-02T04:43:05.346Z,-5.32
2023-03-02T04:45:35.225Z,-5.19
2023-03-02T04:48:05.714Z,-5.23
2023-03-02T04:50:35.617Z,-5.34
2023-03-02T04:53:04.943Z,-5.30
2023-03-02T04:55:34.393Z,-5.34
2023-03-02T04:58:04.296Z,-5.32
2023-03-02T05:00:34.858Z,-5.24
2023-03-02T05:03:05.833Z,-5.27
2023-03-02T05:05:35.686Z,-5.35
2023-03-02T05:08:06.757Z,-5.35
2023-03-02T05:10:36.051Z,-5.35
2023-03-02T05:13:06.547Z,-5.37
2023-03-02T05:15:39.281Z,-5.33
2023-03-02T05:18:11.981Z,-5.32
2023-03-02T05:20:41.484Z,-5.30
2023-03-02T05:23:25.738Z,-5.31
2023-03-02T05:25:57.370Z,-5.30
2023-03-02T05:28:28.299Z,-5.27
2023-03-02T05:30:57.652Z,-5.02
2023-03-02T05:33:28.013Z,-5.19
2023-03-02T05:35:57.560Z,-5.22
2023-03-02T05:38:28.185Z,-5.03
2023-03-02T05:40:57.566Z,-5.04
2023-03-02T05:43:26.948Z,-5.12
2023-03-02T05:46:01.202Z,-5.19
2023-03-02T05:48:32.430Z,-5.20
2023-03-02T05:51:01.741Z,-5.11
2023-03-02T05:53:31.856Z,-4.85
2023-03-02T05:56:00.692Z,-4.98
2023-03-02T05:58:30.250Z,-5.02
2023-03-02T06:00:59.977Z,-5.03
2023-03-02T06:03:29.930Z,-4.93
2023-03-02T06:05:59.228Z,-4.97
2023-03-02T06:08:28.667Z,-4.88
2023-03-02T06:10:59.669Z,-4.84
2023-03-02T06:13:29.078Z,-4.73
2023-03-02T06:15:58.603Z,-4.76
2023-03-02T06:18:28.155Z,-4.55
2023-03-02T06:20:57.968Z,-4.34
2023-03-02T06:23:29.888Z,-4.28
2023-03-02T06:25:59.923Z,-4.00
2023-03-02T06:28:29.832Z,-4.00
2023-03-02T06:31:01.142Z,-4.14
2023-03-02T06:33:38.216Z,-4.13
2023-03-02T06:36:08.795Z,-3.88
2023-03-02T06:38:38.853Z,-4.15
2023-03-02T06:41:08.097Z,-4.20
2023-03-02T06:43:37.477Z,-3.92
2023-03-02T06:46:07.554Z,-3.90
2023-03-02T06:48:37.517Z,-3.59
2023-03-02T06:51:09.622Z,-3.60
2023-03-02T06:53:38.934Z,-3.51
2023-03-02T06:56:09.042Z,-3.49
2023-03-02T06:58:38.492Z,-3.47
2023-03-02T07:01:08.669Z,-3.26
2023-03-02T07:03:38.893Z,-2.99
2023-03-02T07:06:08.548Z,-3.31
2023-03-02T07:08:37.668Z,-3.19
2023-03-02T07:11:10.393Z,-3.22
2023-03-02T07:13:41.115Z,-3.36
2023-03-02T07:16:14.477Z,-2.96
2023-03-02T07:18:43.943Z,-3.06
2023-03-02T07:21:13.940Z,-3.11
2023-03-02T07:23:43.322Z,-2.68
2023-03-02T07:26:12.300Z,-2.94
2023-03-02T07:28:44.306Z,-2.30
2023-03-02T07:31:13.672Z,-2.61
2023-03-02T07:33:43.746Z,-2.71
2023-03-02T07:36:13.468Z,-2.84
2023-03-02T07:38:42.970Z,-2.63
2023-03-02T07:41:13.272Z,-2.76
2023-03-02T07:43:42.560Z,-2.87
2023-03-02T07:46:11.865Z,-2.56
2023-03-02T07:48:41.711Z,-2.26
2023-03-02T07:51:11.211Z,-3.13
2023-03-02T07:53:40.867Z,-2.85
2023-03-02T07:56:12.255Z,-2.95
2023-03-02T07:58:41.601Z,-2.91
2023-03-02T08:01:12.584Z,-2.77
2023-03-02T08:03:42.217Z,-3.21
2023-03-02T08:06:13.571Z,-3.08
2023-03-02T08:08:43.601Z,-2.97
2023-03-02T08:11:16.125Z,-2.80
2023-03-02T08:13:46.307Z,-2.90
2023-03-02T08:16:16.997Z,-2.78
2023-03-02T08:18:48.013Z,-2.33
2023-03-02T08:21:22.140Z,-2.53
2023-03-02T08:23:52.306Z,-2.40
2023-03-02T08:26:21.974Z,-2.71
2023-03-02T08:28:51.724Z,-2.77
2023-03-02T08:31:20.868Z,-2.77
2023-03-02T08:33:50.812Z,-3.34
2023-03-02T08:36:21.198Z,-2.91
2023-03-02T08:38:52.731Z,-2.80
2023-03-02T08:41:24.674Z,-2.90
2023-03-02T08:43:55.260Z,-2.81
2023-03-02T08:46:24.950Z,-2.82
2023-03-02T08:48:54.292Z,-2.44
2023-03-02T08:51:27.339Z,-2.19
2023-03-02T08:53:57.944Z,-2.03
2023-03-02T08:56:31.802Z,-2.22
2023-03-02T08:59:04.515Z,-2.11
2023-03-02T09:01:36.636Z,-2.07
2023-03-02T09:04:09.104Z,-2.08
2023-03-02T09:06:42.277Z,-2.04
2023-03-02T09:09:14.606Z,-1.92
2023-03-02T09:11:46.541Z,-2.06
2023-03-02T09:14:16.533Z,-1.80
2023-03-02T09:16:47.040Z,-2.44
2023-03-02T09:19:16.889Z,-2.42
2023-03-02T09:21:46.181Z,-1.97
2023-03-02T09:24:16.484Z,-1.74
2023-03-02T09:26:46.357Z,-1.41
2023-03-02T09:29:15.384Z,-1.33
2023-03-02T09:31:44.956Z,-1.31
2023-03-02T09:34:15.249Z,-2.17
2023-03-02T09:36:44.456Z,-1.66
2023-03-02T09:39:14.459Z,-2.02
2023-03-02T09:42:18.713Z,-2.04
2023-03-02T09:45:09.013Z,-2.19
2023-03-02T09:48:06.211Z,-1.91
2023-03-02T09:50:41.381Z,-2.06
2023-03-02T09:53:26.489Z,-2.40
2023-03-02T09:56:01.714Z,-1.92
2023-03-02T09:58:38.565Z,-2.30
2023-03-02T10:01:18.723Z,-1.78
2023-03-02T10:03:57.089Z,-2.02
2023-03-02T10:06:27.695Z,-1.93
2023-03-02T10:08:57.747Z,-1.78
2023-03-02T10:11:36.042Z,-1.69
2023-03-02T10:14:14.030Z,-1.84
2023-03-02T10:16:53.861Z,-2.13
2023-03-02T10:19:44.429Z,-1.74
2023-03-02T10:22:18.428Z,-1.79
2023-03-02T10:24:59.603Z,-1.69
2023-03-02T10:27:36.913Z,-1.67
2023-03-02T10:30:09.985Z,-1.67
2023-03-02T10:32:50.500Z,-1.30
2023-03-02T10:35:25.371Z,-1.52
2023-03-02T10:38:13.469Z,-1.30
2023-03-02T10:40:48.344Z,-1.60
2023-03-02T10:43:27.150Z,-1.27
2023-03-02T10:46:05.235Z,-1.33
2023-03-02T10:48:49.407Z,-1.63
2023-03-02T10:51:28.968Z,-1.90
2023-03-02T10:54:21.225Z,-1.79
2023-03-02T10:56:54.643Z,-1.56
2023-03-02T10:59:42.043Z,-1.55
2023-03-02T11:02:15.249Z,-1.47
2023-03-02T11:04:45.397Z,-1.37
2023-03-02T11:07:19.781Z,-1.20
2023-03-02T11:10:08.676Z,-1.44
2023-03-02T11:12:38.559Z,-1.36
2023-03-02T11:15:30.855Z,-1.32
2023-03-02T11:18:07.892Z,-1.12
2023-03-02T11:20:42.670Z,-1.36
2023-03-02T11:23:36.726Z,-1.23
2023-03-02T11:26:16.474Z,-0.97
2023-03-02T11:28:59.124Z,-1.32
2023-03-02T11:31:37.888Z,-1.05
2023-03-02T11:34:21.431Z,-0.76
2023-03-02T11:37:15.096Z,-1.19
2023-03-02T11:40:20.194Z,-1.00
2023-03-02T11:42:50.799Z,-1.25
2023-03-02T11:45:23.309Z,-1.24
2023-03-02T11:48:23.381Z,-1.46
2023-03-02T11:50:56.829Z,-1.80
2023-03-02T11:53:30.843Z,-1.63
2023-03-02T11:56:00.394Z,-1.88
2023-03-02T11:58:31.954Z,-1.68
2023-03-02T12:01:02.921Z,-0.92
2023-03-02T12:03:33.544Z,-0.91
2023-03-02T12:06:06.074Z,-0.71
2023-03-02T12:08:42.100Z,-0.55
2023-03-02T12:11:19.006Z,-0.35
2023-03-02T12:14:02.404Z,-0.47
2023-03-02T12:16:42.153Z,-0.62
2023-03-02T12:19:19.780Z,-0.38
2023-03-02T12:22:10.465Z,-0.46
2023-03-02T12:24:44.963Z,-1.27
2023-03-02T12:27:27.503Z,-1.47
2023-03-02T12:30:12.975Z,-1.29
2023-03-02T12:32:45.154Z,-1.21
2023-03-02T12:35:17.072Z,-1.68
2023-03-02T12:38:17.770Z,-1.50
2023-03-02T12:41:01.348Z,-1.80
2023-03-02T12:43:41.508Z,-2.30
2023-03-02T12:46:33.562Z,-2.58
2023-03-02T12:49:28.098Z,-2.49
2023-03-02T12:52:00.080Z,-1.98
2023-03-02T12:54:32.368Z,-1.76
2023-03-02T12:57:09.528Z,-2.14
2023-03-02T12:59:38.796Z,-2.36
2023-03-02T13:02:18.273Z,-2.42
2023-03-02T13:05:11.016Z,-2.49
2023-03-02T13:07:51.376Z,-2.12
2023-03-02T13:10:43.770Z,-2.03
2023-03-02T13:13:22.937Z,-2.41
2023-03-02T13:15:54.610Z,-2.32
2023-03-02T13:18:27.692Z,-2.64
2023-03-02T13:20:57.632Z,-2.77
2023-03-02T13:23:30.071Z,-2.83
2023-03-02T13:26:02.759Z,-2.50
2023-03-02T13:28:38.685Z,-2.19
2023-03-02T13:31:23.428Z,-2.00
2023-03-02T13:33:56.723Z,-1.49
2023-03-02T13:36:36.037Z,-1.44
2023-03-02T13:39:09.894Z,-1.50
2023-03-02T13:41:41.249Z,-2.19
2023-03-02T13:44:33.428Z,-1.81
2023-03-02T13:47:03.651Z,-2.41
2023-03-02T13:49:36.179Z,-2.30
2023-03-02T13:52:28.874Z,-2.28
2023-03-02T13:54:59.582Z,-2.56
2023-03-02T13:57:32.329Z,-2.67
2023-03-02T14:00:02.326Z,-2.93
2023-03-02T14:02:33.714Z,-2.94
2023-03-02T14:05:04.005Z,-3.17
2023-03-02T14:07:33.495Z,-3.21
2023-03-02T14:10:05.235Z,-3.05
2023-03-02T14:12:34.773Z,-3.24
2023-03-02T14:15:08.149Z,-3.21
2023-03-02T14:17:39.496Z,-3.10
2023-03-02T14:20:15.840Z,-3.31
2023-03-02T14:22:45.614Z,-3.67
2023-03-02T14:25:16.315Z,-3.69
2023-03-02T14:27:47.885Z,-3.57
2023-03-02T14:30:23.701Z,-3.72
2023-03-02T14:32:53.043Z,-3.63
2023-03-02T14:35:26.001Z,-3.76
2023-03-02T14:37:56.286Z,-3.71
2023-03-02T14:40:29.079Z,-3.65
2023-03-02T14:42:58.328Z,-3.88
2023-03-02T14:45:30.480Z,-3.91
2023-03-02T14:48:03.431Z,-3.81
2023-03-02T14:50:40.731Z,-3.71
2023-03-02T14:53:17.804Z,-3.78
2023-03-02T14:55:48.136Z,-3.62
2023-03-02T14:58:21.473Z,-3.78
2023-03-02T15:00:51.592Z,-3.75
2023-03-02T15:03:23.501Z,-3.70
2023-03-02T15:06:01.278Z,-3.79
2023-03-02T15:08:32.801Z,-3.75
2023-03-02T15:11:02.860Z,-3.60
2023-03-02T15:13:31.960Z,-3.40
2023-03-02T15:16:04.781Z,-3.68
2023-03-02T15:18:36.704Z,-3.64
2023-03-02T15:21:06.490Z,-3.51
2023-03-02T15:23:37.514Z,-3.50
2023-03-02T15:26:07.539Z,-3.45
2023-03-02T15:28:38.167Z,-3.41
2023-03-02T15:31:10.330Z,-3.51
2023-03-02T15:33:41.022Z,-3.39
2023-03-02T15:36:10.647Z,-3.33
2023-03-02T15:38:40.389Z,-3.37
2023-03-02T15:41:14.986Z,-3.47
2023-03-02T15:43:45.906Z,-3.57
2023-03-02T15:46:14.939Z,-3.55
2023-03-02T15:48:45.192Z,-3.46
2023-03-02T15:51:19.642Z,-3.65
2023-03-02T15:53:55.246Z,-3.60
2023-03-02T15:56:32.900Z,-3.61
2023-03-02T15:59:10.240Z,-3.57
2023-03-02T16:01:41.918Z,-3.60
2023-03-02T16:04:14.208Z,-3.58
2023-03-02T16:06:49.068Z,-3.53
2023-03-02T16:09:20.193Z,-3.56
2023-03-02T16:11:53.371Z,-3.50
2023-03-02T16:14:29.208Z,-3.35
2023-03-02T16:17:21.718Z,-3.48
2023-03-02T16:20:03.033Z,-3.48
2023-03-02T16:22:34.321Z,-3.49
2023-03-02T16:25:13.062Z,-3.38
2023-03-02T16:27:48.973Z,-3.39
2023-03-02T16:30:23.446Z,-3.40
2023-03-02T16:32:59.250Z,-3.36
2023-03-02T16:35:34.883Z,-3.65
2023-03-02T16:38:19.325Z,-3.49
2023-03-02T16:40:50.634Z,-3.45
2023-03-02T16:43:26.128Z,-3.51
2023-03-02T16:45:57.740Z,-3.46
2023-03-02T16:48:32.467Z,-3.64
2023-03-02T16:51:05.692Z,-3.39
2023-03-02T16:53:39.849Z,-3.37
2023-03-02T16:56:11.766Z,-3.47
2023-03-02T16:58:43.328Z,-3.53
2023-03-02T17:01:19.625Z,-3.37
2023-03-02T17:03:52.142Z,-3.65
2023-03-02T17:06:24.979Z,-3.41
2023-03-02T17:08:55.766Z,-3.47
2023-03-02T17:11:25.925Z,-3.41
2023-03-02T17:13:57.573Z,-3.36
2023-03-02T17:16:27.621Z,-3.33
2023-03-02T17:18:58.591Z,-3.29
2023-03-02T17:21:30.530Z,-3.33
2023-03-02T17:24:02.421Z,-3.29
2023-03-02T17:26:32.939Z,-3.18
2023-03-02T17:29:03.769Z,-3.16
2023-03-02T17:31:34.172Z,-3.13
2023-03-02T17:34:04.808Z,-3.20
2023-03-02T17:36:36.852Z,-3.09
2023-03-02T17:39:09.509Z,-3.08
2023-03-02T17:41:42.359Z,-3.25
2023-03-02T17:44:18.920Z,-3.08
2023-03-02T17:46:48.554Z,-3.31
2023-03-02T17:49:22.353Z,-3.28
2023-03-02T17:51:52.420Z,-3.35
2023-03-02T17:54:24.538Z,-3.35
2023-03-02T17:57:06.688Z,-3.37
2023-03-02T17:59:44.302Z,-3.20
2023-03-02T18:02:18.333Z,-3.39
2023-03-02T18:04:53.248Z,-3.15
2023-03-02T18:07:28.706Z,-3.29
2023-03-02T18:09:59.138Z,-3.16
2023-03-02T18:12:32.436Z,-3.18
2023-03-02T18:15:07.067Z,-3.03
2023-03-02T18:17:35.992Z,-3.12
2023-03-02T18:20:06.719Z,-3.20
2023-03-02T18:22:38.680Z,-3.19
2023-03-02T18:25:10.131Z,-3.21
2023-03-02T18:27:43.729Z,-3.14
2023-03-02T18:30:14.425Z,-3.10
2023-03-02T18:32:44.178Z,-3.12
2023-03-02T18:35:16.100Z,-3.06
2023-03-02T18:37:45.842Z,-3.06
2023-03-02T18:40:16.635Z,-3.18
2023-03-02T18:42:45.917Z,-3.08
2023-03-02T18:45:31.624Z,-3.07
2023-03-02T18:48:02.359Z,-3.14
2023-03-02T18:50:36.384Z,-2.97
2023-03-02T18:53:05.799Z,-3.05
2023-03-02T18:55:38.287Z,-2.96
2023-03-02T18:58:08.749Z,-2.87
2023-03-02T19:00:40.232Z,-2.94
2023-03-02T19:03:10.165Z,-2.91
2023-03-02T19:05:40.007Z,-2.85
2023-03-02T19:08:12.343Z,-2.95
2023-03-02T19:10:45.153Z,-2.95
2023-03-02T19:13:15.753Z,-2.94
2023-03-02T19:15:47.888Z,-2.89
2023-03-02T19:18:20.915Z,-2.96
2023-03-02T19:20:52.853Z,-2.92
2023-03-02T19:23:22.992Z,-2.89
2023-03-02T19:25:53.340Z,-2.89
2023-03-02T19:28:32.253Z,-2.81
2023-03-02T19:31:09.772Z,-2.89
2023-03-02T19:33:41.022Z,-2.90
2023-03-02T19:36:13.468Z,-2.76
2023-03-02T19:38:43.822Z,-2.87
2023-03-02T19:41:17.571Z,-2.91
2023-03-02T19:43:47.898Z,-2.82
2023-03-02T19:46:20.515Z,-2.76
2023-03-02T19:48:49.818Z,-2.70
2023-03-02T19:51:21.073Z,-2.77
2023-03-02T19:53:51.840Z,-2.76
2023-03-02T19:56:27.573Z,-2.67
2023-03-02T19:59:01.086Z,-2.66
2023-03-02T20:01:33.381Z,-2.62
2023-03-02T20:04:03.293Z,-2.75
2023-03-02T20:06:35.160Z,-2.53
2023-03-02T20:09:07.632Z,-2.64
2023-03-02T20:11:39.196Z,-2.61
2023-03-02T20:14:08.987Z,-2.74
2023-03-02T20:16:39.381Z,-2.76
2023-03-02T20:19:09.510Z,-2.62
2023-03-02T20:21:45.674Z,-2.79
2023-03-02T20:24:19.712Z,-2.81
2023-03-02T20:26:49.485Z,-2.78
2023-03-02T20:29:19.600Z,-2.73
2023-03-02T20:31:49.477Z,-2.74
2023-03-02T20:34:20.975Z,-2.83
2023-03-02T20:36:50.962Z,-2.71
2023-03-02T20:39:27.358Z,-2.75
2023-03-02T20:41:57.480Z,-2.75
2023-03-02T20:44:32.299Z,-2.71
2023-03-02T20:47:07.181Z,-2.73
2023-03-02T20:49:38.545Z,-2.76
2023-03-02T20:52:10.494Z,-2.72
2023-03-02T20:54:43.235Z,-2.69
2023-03-02T20:57:17.458Z,-2.69
2023-03-02T20:59:49.092Z,-2.72
2023-03-02T21:02:20.875Z,-2.71
2023-03-02T21:04:50.956Z,-2.60
2023-03-02T21:07:20.437Z,-2.87
2023-03-02T21:09:49.784Z,-2.98
2023-03-02T21:12:20.075Z,-3.05
2023-03-02T21:14:49.956Z,-3.26
2023-03-02T21:17:20.024Z,-3.55
2023-03-02T21:19:49.678Z,-3.53
2023-03-02T21:22:21.642Z,-3.48
2023-03-02T21:24:53.579Z,-3.50
2023-03-02T21:27:23.772Z,-3.64
2023-03-02T21:29:53.197Z,-3.65
2023-03-02T21:32:23.864Z,-3.57
2023-03-02T21:34:53.235Z,-3.45
2023-03-02T21:37:25.032Z,-3.50
2023-03-02T21:39:54.888Z,-3.38
2023-03-02T21:42:24.718Z,-3.33
2023-03-02T21:44:54.239Z,-3.24
2023-03-02T21:47:24.155Z,-3.28
2023-03-02T21:49:54.109Z,-3.31
2023-03-02T21:52:23.428Z,-3.22
2023-03-02T21:54:52.857Z,-3.32
2023-03-02T21:57:25.272Z,-3.30
2023-03-02T21:59:55.752Z,-3.35
2023-03-02T22:02:25.679Z,-3.38
2023-03-02T22:04:55.498Z,-3.40
2023-03-02T22:07:25.061Z,-3.36
2023-03-02T22:09:54.327Z,-3.31
2023-03-02T22:12:24.716Z,-3.28
2023-03-02T22:14:55.609Z,-3.26
2023-03-02T22:17:26.217Z,-2.99
2023-03-02T22:19:55.561Z,-2.96
2023-03-02T22:22:28.313Z,-2.82
2023-03-02T22:24:57.888Z,-2.92
2023-03-02T22:27:29.802Z,-3.00
2023-03-02T22:30:02.612Z,-3.01
2023-03-02T22:32:36.794Z,-2.99
2023-03-02T22:35:24.400Z,-2.96
2023-03-02T22:38:03.095Z,-2.93
2023-03-02T22:40:35.919Z,-2.90
2023-03-02T22:43:25.641Z,-2.78
2023-03-02T22:45:59.365Z,-2.74
2023-03-02T22:48:31.480Z,-2.77
2023-03-02T22:51:06.820Z,-2.74
2023-03-02T22:53:40.956Z,-3.05
2023-03-02T22:56:37.574Z,-3.40
2023-03-02T22:59:25.382Z,-3.34
2023-03-02T23:02:09.273Z,-3.32
2023-03-02T23:04:39.104Z,-3.36
2023-03-02T23:07:24.680Z,-3.45
2023-03-02T23:09:54.203Z,-3.56
2023-03-02T23:12:28.091Z,-3.93
2023-03-02T23:14:59.551Z,-3.72
2023-03-02T23:17:39.291Z,-3.77
2023-03-02T23:20:12.586Z,-3.68
2023-03-02T23:22:43.079Z,-3.62
2023-03-02T23:25:12.120Z,-3.94
2023-03-02T23:27:41.850Z,-4.00
2023-03-02T23:30:11.864Z,-4.00
2023-03-02T23:32:41.432Z,-3.58
2023-03-02T23:35:10.965Z,-3.53
2023-03-02T23:37:40.470Z,-3.53
2023-03-02T23:40:12.227Z,-3.72
2023-03-02T23:42:41.656Z,-3.58
2023-03-02T23:45:12.034Z,-3.56
2023-03-02T23:47:41.251Z,-3.65
2023-03-02T23:50:12.600Z,-4.11
2023-03-02T23:52:42.976Z,-3.96
2023-03-02T23:55:12.602Z,-4.34
2023-03-02T23:57:43.320Z,-4.18
